createdAt,value
2023-05-18T00:02:25.518Z,12.20
2023-05-18T00:04:54.096Z,15.93
2023-05-18T00:07:22.454Z,13.57
2023-05-18T00:09:50.787Z,12.38
2023-05-18T00:12:20.406Z,37.25
2023-05-18T00:14:48.635Z,38.72
2023-05-18T00:17:16.967Z,22.08
2023-05-18T00:19:45.244Z,26.13
2023-05-18T00:22:13.895Z,19.75
2023-05-18T00:24:42.224Z,23.30
2023-05-18T00:27:10.510Z,22.25
2023-05-18T00:29:38.914Z,30.10
2023-05-18T00:32:07.398Z,14.27
2023-05-18T00:34:35.761Z,11.43
2023-05-18T00:37:04.450Z,12.27
2023-05-18T00:39:32.799Z,28.48
2023-05-18T00:42:01.391Z,17.63
2023-05-18T00:44:29.714Z,26.85
2023-05-18T00:46:58.327Z,20.30
2023-05-18T00:49:27.623Z,26.77
2023-05-18T00:51:56.809Z,67.07
2023-05-18T00:54:27.238Z,26.80
2023-05-18T00:56:55.846Z,25.15
2023-05-18T00:59:24.291Z,27.08
2023-05-18T01:01:53.931Z,17.25
2023-05-18T01:04:22.487Z,29.65
2023-05-18T01:06:50.974Z,44.30
2023-05-18T01:09:19.326Z,77.88
2023-05-18T01:12:35.072Z,44.27
2023-05-18T01:15:11.690Z,23.65
2023-05-18T01:17:58.481Z,34.05
2023-05-18T01:20:58.767Z,45.35
2023-05-18T01:24:04.107Z,52.45
2023-05-18T01:26:35.425Z,38.15
2023-05-18T01:29:07.205Z,33.95
2023-05-18T01:34:04.248Z,28.77
2023-05-18T01:36:33.122Z,33.58
2023-05-18T01:39:02.278Z,47.67
2023-05-18T01:41:32.488Z,23.75
2023-05-18T01:44:20.384Z,46.55
2023-05-18T01:47:04.332Z,52.42
2023-05-18T01:49:51.002Z,31.48
2023-05-18T01:52:45.428Z,25.00
2023-05-18T01:55:17.264Z,48.83
2023-05-18T01:57:47.120Z,78.82
2023-05-18T02:00:20.553Z,89.22
2023-05-18T02:06:31.989Z,65.07
2023-05-18T02:09:00.615Z,40.63
2023-05-18T02:13:29.403Z,27.08
2023-05-18T02:15:57.829Z,25.55
2023-05-18T02:18:26.144Z,11.70
2023-05-18T02:21:01.142Z,9.05
2023-05-18T02:23:29.716Z,19.30
2023-05-18T02:25:57.927Z,18.10
2023-05-18T02:28:26.825Z,27.17
2023-05-18T02:30:55.369Z,23.77
2023-05-18T02:33:23.798Z,23.83
2023-05-18T02:35:52.710Z,16.25
2023-05-18T02:38:21.500Z,20.50
2023-05-18T02:40:49.770Z,14.52
2023-05-18T02:43:18.604Z,18.98
2023-05-18T02:45:46.899Z,13.43
2023-05-18T02:48:16.242Z,16.45
2023-05-18T02:50:44.487Z,21.73
2023-05-18T02:53:12.924Z,24.02
2023-05-18T02:55:41.588Z,21.40
2023-05-18T02:58:20.494Z,23.58
2023-05-18T03:01:01.697Z,10.05
2023-05-18T03:03:36.391Z,9.05
2023-05-18T03:06:07.845Z,8.05
2023-05-18T03:08:36.913Z,7.18
2023-05-18T03:11:05.539Z,7.97
2023-05-18T03:13:34.065Z,9.18
2023-05-18T03:16:02.552Z,11.23
2023-05-18T03:18:31.059Z,15.73
2023-05-18T03:20:59.813Z,11.43
2023-05-18T03:23:28.604Z,10.02
2023-05-18T03:25:57.233Z,8.48
2023-05-18T03:28:29.558Z,8.98
2023-05-18T03:30:59.030Z,9.93
2023-05-18T03:33:27.980Z,6.88
2023-05-18T03:35:56.090Z,8.77
2023-05-18T03:38:25.268Z,12.13
2023-05-18T03:41:00.024Z,6.15
2023-05-18T03:43:28.667Z,4.30
2023-05-18T03:45:56.916Z,6.97
2023-05-18T03:48:25.619Z,12.65
2023-05-18T03:50:54.362Z,11.55
2023-05-18T03:53:23.314Z,14.63
2023-05-18T03:55:51.963Z,10.95
2023-05-18T03:58:20.405Z,13.40
2023-05-18T04:00:49.187Z,11.43
2023-05-18T04:03:18.228Z,17.25
2023-05-18T04:05:46.526Z,13.18
2023-05-18T04:08:15.077Z,22.00
2023-05-18T04:10:44.062Z,16.70
2023-05-18T04:13:13.985Z,23.80
2023-05-18T04:15:43.575Z,26.58
2023-05-18T04:18:14.040Z,28.10
2023-05-18T04:20:43.394Z,27.52
2023-05-18T04:23:11.521Z,17.83
2023-05-18T04:25:40.291Z,19.58
2023-05-18T04:28:09.046Z,21.33
2023-05-18T04:30:38.090Z,15.18
2023-05-18T04:33:07.536Z,10.93
2023-05-18T04:35:36.189Z,18.45
2023-05-18T04:38:05.097Z,13.20
2023-05-18T04:40:33.704Z,17.33
2023-05-18T04:43:02.291Z,15.15
2023-05-18T04:45:32.921Z,24.05
2023-05-18T04:48:02.414Z,15.50
2023-05-18T04:50:30.625Z,14.40
2023-05-18T04:52:59.097Z,16.17
2023-05-18T04:55:28.622Z,11.30
2023-05-18T04:58:05.553Z,11.85
2023-05-18T05:00:33.873Z,15.77
2023-05-18T05:03:02.142Z,12.20
2023-05-18T05:05:31.228Z,13.70
2023-05-18T05:07:59.746Z,15.52
2023-05-18T05:10:28.558Z,12.23
2023-05-18T05:12:56.749Z,12.80
2023-05-18T05:15:26.085Z,17.23
2023-05-18T05:17:55.803Z,13.98
2023-05-18T05:20:24.629Z,13.88
2023-05-18T05:22:54.134Z,13.02
2023-05-18T05:25:25.716Z,12.80
2023-05-18T05:27:54.471Z,13.55
2023-05-18T05:30:23.287Z,18.85
2023-05-18T05:32:51.648Z,23.33
2023-05-18T05:35:20.288Z,12.93
2023-05-18T05:37:49.646Z,16.42
2023-05-18T05:40:18.659Z,14.57
2023-05-18T05:42:47.925Z,14.70
2023-05-18T05:45:16.335Z,11.57
2023-05-18T05:47:47.500Z,12.60
2023-05-18T05:50:18.124Z,9.77
2023-05-18T05:52:48.406Z,13.38
2023-05-18T05:55:18.115Z,12.27
2023-05-18T05:57:46.334Z,9.20
2023-05-18T06:00:15.149Z,10.45
2023-05-18T06:02:49.913Z,11.50
2023-05-18T06:05:29.425Z,9.48
2023-05-18T06:07:58.509Z,11.02
2023-05-18T06:10:26.838Z,11.35
2023-05-18T06:12:56.607Z,13.43
2023-05-18T06:15:32.521Z,10.25
2023-05-18T06:18:01.529Z,15.88
2023-05-18T06:20:30.690Z,17.42
2023-05-18T06:22:59.421Z,13.27
2023-05-18T06:25:37.649Z,18.25
2023-05-18T06:28:26.253Z,15.23
2023-05-18T06:31:00.771Z,18.13
2023-05-18T06:33:51.030Z,20.60
2023-05-18T06:36:19.549Z,24.75
2023-05-18T06:38:47.718Z,25.70
2023-05-18T06:41:16.132Z,27.23
2023-05-18T06:43:44.568Z,36.10
2023-05-18T06:46:31.009Z,24.77
2023-05-18T06:49:02.420Z,22.02
2023-05-18T06:51:31.365Z,22.98
2023-05-18T06:53:59.596Z,25.63
2023-05-18T06:56:28.503Z,32.08
2023-05-18T06:58:57.783Z,21.85
2023-05-18T07:01:28.254Z,22.48
2023-05-18T07:04:00.166Z,27.08
2023-05-18T07:06:29.273Z,25.50
2023-05-18T07:08:57.661Z,21.83
2023-05-18T07:11:28.147Z,26.55
2023-05-18T07:13:58.035Z,27.42
2023-05-18T07:16:29.254Z,35.08
2023-05-18T07:18:58.614Z,27.88
2023-05-18T07:21:27.138Z,24.08
2023-05-18T07:23:55.512Z,22.02
2023-05-18T07:26:24.022Z,27.45
2023-05-18T07:28:52.262Z,24.85
2023-05-18T07:31:20.692Z,27.35
2023-05-18T07:33:49.030Z,26.75
2023-05-18T07:36:17.244Z,27.23
2023-05-18T07:38:45.620Z,28.92
2023-05-18T07:41:13.885Z,23.92
2023-05-18T07:43:42.251Z,19.80
2023-05-18T07:46:10.627Z,28.38
2023-05-18T07:48:40.562Z,20.92
2023-05-18T07:51:09.538Z,27.25
2023-05-18T07:53:37.991Z,23.35
2023-05-18T07:56:07.244Z,18.25
2023-05-18T07:58:36.841Z,23.45
2023-05-18T08:01:09.603Z,23.42
2023-05-18T08:03:38.020Z,26.20
2023-05-18T08:06:06.315Z,22.23
2023-05-18T08:08:34.746Z,18.45
2023-05-18T08:11:03.395Z,12.30
2023-05-18T08:13:33.895Z,6.85
2023-05-18T08:16:11.314Z,11.05
2023-05-18T08:18:41.281Z,12.90
2023-05-18T08:21:10.195Z,10.05
2023-05-18T08:23:39.146Z,16.35
2023-05-18T08:26:07.502Z,15.23
2023-05-18T08:28:37.219Z,12.60
2023-05-18T08:31:05.589Z,14.13
2023-05-18T08:33:33.858Z,9.15
2023-05-18T08:36:02.250Z,6.47
2023-05-18T08:38:30.643Z,6.00
2023-05-18T08:41:01.892Z,6.80
2023-05-18T08:43:31.666Z,7.68
2023-05-18T08:46:20.599Z,8.90
2023-05-18T08:48:52.435Z,10.85
2023-05-18T08:51:22.343Z,8.32
2023-05-18T08:53:54.356Z,8.63
2023-05-18T08:56:27.231Z,9.32
2023-05-18T08:58:59.468Z,6.88
2023-05-18T09:01:28.434Z,9.60
2023-05-18T09:03:58.512Z,8.82
2023-05-18T09:06:26.969Z,11.15
2023-05-18T09:08:56.564Z,10.55
2023-05-18T09:11:27.451Z,12.52
2023-05-18T09:13:56.421Z,10.93
2023-05-18T09:16:24.879Z,11.68
2023-05-18T09:18:57.590Z,6.65
2023-05-18T09:21:26.037Z,7.93
2023-05-18T09:23:54.395Z,11.55
2023-05-18T09:26:22.728Z,9.55
2023-05-18T09:28:53.822Z,10.68
2023-05-18T09:31:23.746Z,8.73
2023-05-18T09:33:52.935Z,11.70
2023-05-18T09:36:26.326Z,6.32
2023-05-18T09:38:54.810Z,7.80
2023-05-18T09:41:27.527Z,12.52
2023-05-18T09:43:56.095Z,9.10
2023-05-18T09:46:24.301Z,11.32
2023-05-18T09:48:54.697Z,11.40
2023-05-18T09:55:26.998Z,15.48
2023-05-18T09:57:57.844Z,18.60
2023-05-18T10:00:26.115Z,17.27
2023-05-18T10:02:54.400Z,15.90
2023-05-18T10:05:24.382Z,13.55
2023-05-18T10:07:52.987Z,10.25
2023-05-18T10:10:23.074Z,12.32
2023-05-18T10:12:55.846Z,9.93
2023-05-18T10:15:25.174Z,8.85
2023-05-18T10:17:57.715Z,5.13
2023-05-18T10:20:31.190Z,8.45
2023-05-18T10:23:05.878Z,10.48
2023-05-18T10:25:35.706Z,11.88
2023-05-18T10:28:08.277Z,16.98
2023-05-18T10:30:38.160Z,9.85
2023-05-18T10:33:14.263Z,9.10
2023-05-18T10:35:54.093Z,8.88
2023-05-18T10:38:27.544Z,6.43
2023-05-18T10:41:00.589Z,15.20
2023-05-18T10:43:29.581Z,16.73
2023-05-18T10:46:02.430Z,15.02
2023-05-18T10:48:31.264Z,41.60
2023-05-18T10:50:59.514Z,39.65
2023-05-18T10:53:29.199Z,18.33
2023-05-18T10:55:57.655Z,14.18
2023-05-18T10:58:31.332Z,15.32
2023-05-18T11:01:06.102Z,10.45
2023-05-18T11:03:34.796Z,15.05
2023-05-18T11:06:10.679Z,18.58
2023-05-18T11:08:50.172Z,12.05
2023-05-18T11:11:19.676Z,15.52
2023-05-18T11:13:51.938Z,17.92
2023-05-18T11:16:21.318Z,12.48
2023-05-18T11:18:52.049Z,14.82
2023-05-18T11:21:26.695Z,19.70
2023-05-18T11:24:23.670Z,25.30
2023-05-18T11:27:02.908Z,18.70
2023-05-18T11:29:42.000Z,16.45
2023-05-18T11:32:31.239Z,18.58
2023-05-18T11:35:00.617Z,14.20
2023-05-18T11:37:40.882Z,16.83
2023-05-18T11:40:12.798Z,11.32
2023-05-18T11:42:41.284Z,15.50
2023-05-18T11:45:14.147Z,9.15
2023-05-18T11:47:42.816Z,8.32
2023-05-18T11:50:12.196Z,8.45
2023-05-18T11:52:48.287Z,8.77
2023-05-18T11:55:21.197Z,8.35
2023-05-18T11:57:53.262Z,10.38
2023-05-18T12:00:25.444Z,14.00
2023-05-18T12:02:57.174Z,14.17
2023-05-18T12:05:25.967Z,8.57
2023-05-18T12:07:54.549Z,12.27
2023-05-18T12:10:23.661Z,12.38
2023-05-18T12:12:53.676Z,12.75
2023-05-18T12:15:27.154Z,11.63
2023-05-18T12:17:55.576Z,13.55
2023-05-18T12:20:24.589Z,9.93
2023-05-18T12:22:54.439Z,17.70
2023-05-18T12:25:25.169Z,13.10
2023-05-18T12:27:55.132Z,9.10
2023-05-18T12:30:26.025Z,9.20
2023-05-18T12:32:58.217Z,15.73
2023-05-18T12:35:31.056Z,9.93
2023-05-18T12:38:00.069Z,7.82
2023-05-18T12:40:34.931Z,15.07
2023-05-18T12:43:03.212Z,12.18
2023-05-18T12:45:37.401Z,9.25
2023-05-18T12:48:11.298Z,20.80
2023-05-18T12:50:50.431Z,13.25
2023-05-18T12:53:19.321Z,19.42
2023-05-18T12:55:59.491Z,13.82
2023-05-18T12:58:27.842Z,15.10
2023-05-18T13:00:56.002Z,8.55
2023-05-18T13:03:24.683Z,11.43
2023-05-18T13:06:11.015Z,13.38
2023-05-18T13:08:39.353Z,19.50
2023-05-18T13:11:14.148Z,14.85
2023-05-18T13:14:02.078Z,9.18
2023-05-18T13:16:31.058Z,9.45
2023-05-18T13:19:04.992Z,16.88
2023-05-18T13:21:34.194Z,18.35
2023-05-18T13:24:03.462Z,23.13
2023-05-18T13:26:31.759Z,6.97
2023-05-18T13:29:00.558Z,7.03
2023-05-18T13:31:29.357Z,8.10
2023-05-18T13:33:57.651Z,10.43
2023-05-18T13:36:26.076Z,9.50
2023-05-18T13:38:54.363Z,11.73
2023-05-18T13:41:22.680Z,12.27
2023-05-18T13:43:50.881Z,7.55
2023-05-18T13:53:47.254Z,6.88
2023-05-18T13:56:16.240Z,21.50
2023-05-18T13:58:44.536Z,15.35
2023-05-18T14:01:13.726Z,9.23
2023-05-18T14:03:42.327Z,11.95
2023-05-18T14:06:10.737Z,11.55
2023-05-18T14:08:39.054Z,6.68
2023-05-18T14:11:07.290Z,11.40
2023-05-18T14:13:35.644Z,10.18
2023-05-18T14:16:03.842Z,10.25
2023-05-18T14:18:32.132Z,7.93
2023-05-18T14:21:00.413Z,10.20
2023-05-18T14:23:29.052Z,11.77
2023-05-18T14:25:57.286Z,13.48
2023-05-18T14:28:25.655Z,16.33
2023-05-18T14:30:53.878Z,7.43
2023-05-18T14:33:22.279Z,10.57
2023-05-18T14:42:55.879Z,11.63
2023-05-18T14:45:24.266Z,16.27
2023-05-18T14:47:52.441Z,12.60
2023-05-18T14:50:20.836Z,8.23
2023-05-18T14:52:48.879Z,12.38
2023-05-18T14:55:17.173Z,16.15
2023-05-18T14:57:45.607Z,8.45
2023-05-18T15:00:14.532Z,9.18
2023-05-18T15:02:42.711Z,9.10
2023-05-18T15:05:11.127Z,9.60
2023-05-18T15:07:39.328Z,11.13
2023-05-18T15:10:08.558Z,7.18
2023-05-18T15:12:36.768Z,7.05
2023-05-18T15:15:05.390Z,8.38
2023-05-18T15:17:33.659Z,10.45
2023-05-18T15:20:02.170Z,8.88
2023-05-18T15:22:30.586Z,7.18
2023-05-18T15:24:58.703Z,5.72
2023-05-18T15:27:27.275Z,9.63
2023-05-18T15:29:55.673Z,10.32
2023-05-18T15:32:25.104Z,7.78
2023-05-18T15:34:53.704Z,6.05
2023-05-18T15:37:25.005Z,6.10
2023-05-18T15:39:53.298Z,7.43
2023-05-18T15:42:21.450Z,6.28
2023-05-18T15:44:49.935Z,5.68
2023-05-18T15:47:18.256Z,12.85
2023-05-18T15:49:46.481Z,4.88
2023-05-18T15:52:14.681Z,12.45
2023-05-18T15:54:42.994Z,11.00
2023-05-18T15:57:11.153Z,7.97
2023-05-18T15:59:39.351Z,12.13
2023-05-18T16:02:08.081Z,8.32
2023-05-18T16:04:36.304Z,9.27
2023-05-18T16:07:04.608Z,7.50
2023-05-18T16:09:32.816Z,13.15
2023-05-18T16:12:01.143Z,8.48
2023-05-18T16:14:29.326Z,11.23
2023-05-18T16:17:00.702Z,12.98
2023-05-18T16:19:29.184Z,10.77
2023-05-18T16:21:57.796Z,11.55
2023-05-18T16:24:26.180Z,8.00
2023-05-18T16:26:54.484Z,22.55
2023-05-18T16:29:22.548Z,14.68
2023-05-18T16:31:50.868Z,11.57
2023-05-18T16:34:19.004Z,12.35
2023-05-18T16:36:47.262Z,7.47
2023-05-18T16:39:17.865Z,11.55
2023-05-18T16:41:46.420Z,8.75
2023-05-18T16:44:14.666Z,8.13
2023-05-18T16:46:45.617Z,15.65
2023-05-18T16:49:13.976Z,8.95
2023-05-18T16:51:42.281Z,17.80
2023-05-18T16:54:10.460Z,7.95
2023-05-18T16:56:38.973Z,14.02
2023-05-18T16:59:07.130Z,20.63
2023-05-18T17:01:35.547Z,16.13
2023-05-18T17:04:04.145Z,16.10
2023-05-18T17:06:32.313Z,22.45
2023-05-18T17:09:00.613Z,19.27
2023-05-18T17:11:28.948Z,18.05
2023-05-18T17:13:57.247Z,13.88
2023-05-18T17:16:25.740Z,18.60
2023-05-18T17:18:54.002Z,17.13
2023-05-18T17:21:22.404Z,16.20
2023-05-18T17:23:50.559Z,25.33
2023-05-18T17:26:18.994Z,19.33
2023-05-18T17:28:47.227Z,21.83
2023-05-18T17:31:15.590Z,19.58
2023-05-18T17:33:44.042Z,12.95
2023-05-18T17:36:12.262Z,8.90
2023-05-18T17:38:40.596Z,11.43
2023-05-18T17:41:09.226Z,8.98
2023-05-18T17:43:37.454Z,18.58
2023-05-18T17:46:06.100Z,24.27
2023-05-18T17:48:34.438Z,19.50
2023-05-18T17:51:05.795Z,24.98
2023-05-18T17:53:34.101Z,34.45
2023-05-18T17:56:02.288Z,7.28
2023-05-18T17:58:30.493Z,17.10
2023-05-18T18:00:58.816Z,19.10
2023-05-18T18:03:27.515Z,13.57
2023-05-18T18:05:55.689Z,21.50
2023-05-18T18:08:23.969Z,16.38
2023-05-18T18:10:52.310Z,16.58
2023-05-18T18:13:20.705Z,19.60
2023-05-18T18:15:48.928Z,26.52
2023-05-18T18:18:17.320Z,17.02
2023-05-18T18:20:45.670Z,25.33
2023-05-18T18:23:14.157Z,14.30
2023-05-18T18:26:22.910Z,30.13
2023-05-18T18:28:51.192Z,11.77
2023-05-18T18:31:19.343Z,15.32
2023-05-18T18:33:47.874Z,9.10
2023-05-18T18:36:16.319Z,19.02
2023-05-18T18:38:44.868Z,16.10
2023-05-18T18:41:13.285Z,21.85
2023-05-18T18:43:41.604Z,11.73
2023-05-18T18:46:09.895Z,18.08
2023-05-18T18:48:38.456Z,17.00
2023-05-18T18:51:06.624Z,12.25
2023-05-18T18:53:34.876Z,11.48
2023-05-18T18:56:03.261Z,15.32
2023-05-18T18:58:31.655Z,15.90
2023-05-18T19:00:59.818Z,15.27
2023-05-18T19:03:28.393Z,16.60
2023-05-18T19:05:56.573Z,26.20
2023-05-18T19:08:25.481Z,24.35
2023-05-18T19:10:53.755Z,17.13
2023-05-18T19:13:21.950Z,12.73
2023-05-18T19:15:50.468Z,11.25
2023-05-18T19:18:18.946Z,12.25
2023-05-18T19:20:53.429Z,14.77
2023-05-18T19:23:21.884Z,17.45
2023-05-18T19:25:50.473Z,20.55
2023-05-18T19:28:18.868Z,26.00
2023-05-18T19:30:47.429Z,41.25
2023-05-18T19:33:15.731Z,30.83
2023-05-18T19:35:43.897Z,41.60
2023-05-18T19:38:12.634Z,27.48
2023-05-18T19:40:40.851Z,54.83
2023-05-18T19:43:09.064Z,49.33
2023-05-18T19:45:37.726Z,59.60
2023-05-18T19:48:06.148Z,48.17
2023-05-18T19:50:34.526Z,22.55
2023-05-18T19:53:02.772Z,25.65
2023-05-18T19:55:31.461Z,31.95
2023-05-18T19:58:00.142Z,23.83
2023-05-18T20:00:28.562Z,16.88
2023-05-18T20:03:10.809Z,26.67
2023-05-18T20:05:39.194Z,69.03
2023-05-18T20:08:08.421Z,39.83
2023-05-18T20:10:36.720Z,30.85
2023-05-18T20:13:06.618Z,26.67
2023-05-18T20:15:35.853Z,24.52
2023-05-18T20:18:19.281Z,35.47
2023-05-18T20:20:48.838Z,26.60
2023-05-18T20:23:19.724Z,23.07
2023-05-18T20:25:49.045Z,22.38
2023-05-18T20:28:21.910Z,25.83
2023-05-18T20:30:51.877Z,42.08
2023-05-18T20:33:21.026Z,17.98
2023-05-18T20:35:49.824Z,18.80
2023-05-18T20:38:21.120Z,22.50
2023-05-18T20:40:49.964Z,19.10
2023-05-18T20:43:19.926Z,19.67
2023-05-18T20:45:48.583Z,28.65
2023-05-18T20:48:16.858Z,17.95
2023-05-18T20:50:45.645Z,27.00
2023-05-18T20:53:14.277Z,13.70
2023-05-18T20:55:46.790Z,26.08
2023-05-18T20:58:27.437Z,39.30
2023-05-18T21:00:57.584Z,30.13
2023-05-18T21:03:27.600Z,17.88
2023-05-18T21:05:58.430Z,32.58
2023-05-18T21:08:37.478Z,31.88
2023-05-18T21:11:30.159Z,24.25
2023-05-18T21:14:00.266Z,22.17
2023-05-18T21:16:28.861Z,22.23
2023-05-18T21:18:57.646Z,28.48
2023-05-18T21:21:28.013Z,30.25
2023-05-18T21:23:58.438Z,27.13
2023-05-18T21:26:28.229Z,15.70
2023-05-18T21:28:58.033Z,11.70
2023-05-18T21:31:26.496Z,8.82
2023-05-18T21:33:54.880Z,7.07
2023-05-18T21:36:30.363Z,6.65
2023-05-18T21:38:58.754Z,7.30
2023-05-18T21:41:29.217Z,9.52
2023-05-18T21:45:45.914Z,8.75
2023-05-18T21:48:19.074Z,23.38
2023-05-18T21:50:50.276Z,20.45
2023-05-18T21:53:18.614Z,14.85
2023-05-18T21:55:46.853Z,13.75
2023-05-18T21:58:15.340Z,12.77
2023-05-18T22:00:45.152Z,17.27
2023-05-18T22:03:13.410Z,11.43
2023-05-18T22:05:41.722Z,23.38
2023-05-18T22:08:10.126Z,12.40
2023-05-18T22:10:38.660Z,9.70
2023-05-18T22:13:09.609Z,11.10
2023-05-18T22:15:37.885Z,17.42
2023-05-18T22:18:06.345Z,18.05
2023-05-18T22:20:42.260Z,16.05
2023-05-18T22:23:19.588Z,11.15
2023-05-18T22:25:48.679Z,13.60
2023-05-18T22:28:16.945Z,10.15
2023-05-18T22:30:45.636Z,13.90
2023-05-18T22:33:13.816Z,15.48
2023-05-18T22:35:42.096Z,21.92
2023-05-18T22:38:14.699Z,17.27
2023-05-18T22:40:43.371Z,30.40
2023-05-18T22:43:11.901Z,22.98
2023-05-18T22:45:40.245Z,25.27
2023-05-18T22:48:08.753Z,31.00
2023-05-18T22:50:37.513Z,32.67
2023-05-18T22:53:09.324Z,26.50
2023-05-18T22:55:40.551Z,16.85
2023-05-18T22:58:09.141Z,22.10
2023-05-18T23:00:37.389Z,26.10
2023-05-18T23:03:06.081Z,24.30
2023-05-18T23:05:34.891Z,22.90
2023-05-18T23:08:03.320Z,15.45
2023-05-18T23:10:31.958Z,22.27
2023-05-18T23:13:00.974Z,16.17
2023-05-18T23:15:29.922Z,15.15
2023-05-18T23:17:58.235Z,14.13
2023-05-18T23:20:26.722Z,19.17
2023-05-18T23:22:55.102Z,18.05
2023-05-18T23:25:23.520Z,13.60
2023-05-18T23:27:54.934Z,8.63
2023-05-18T23:30:23.347Z,13.68
2023-05-18T23:32:52.390Z,15.40
2023-05-18T23:35:21.010Z,16.48
2023-05-18T23:37:50.120Z,17.27
2023-05-18T23:40:19.398Z,13.52
2023-05-18T23:42:48.222Z,9.55
2023-05-18T23:45:16.827Z,5.65
2023-05-18T23:47:45.736Z,10.63
2023-05-18T23:50:14.856Z,7.78
2023-05-18T23:52:46.397Z,10.25
2023-05-18T23:55:16.184Z,8.45
2023-05-18T23:57:44.681Z,10.32
